createdAt,value
2023-10-25T00:01:11.656Z,10.23
2023-10-25T00:04:14.260Z,9.80
2023-10-25T00:07:18.427Z,10.88
2023-10-25T00:10:21.073Z,8.77
2023-10-25T00:13:23.294Z,8.70
2023-10-25T00:16:25.888Z,8.40
2023-10-25T00:19:28.201Z,7.03
2023-10-25T00:22:30.887Z,8.48
2023-10-25T00:25:33.140Z,7.50
2023-10-25T00:28:35.702Z,7.45
2023-10-25T00:31:38.589Z,7.87
2023-10-25T00:34:42.621Z,6.60
2023-10-25T00:37:44.996Z,7.62
2023-10-25T00:40:47.587Z,7.65
2023-10-25T00:43:50.262Z,7.95
2023-10-25T00:46:53.630Z,8.23
2023-10-25T00:49:56.054Z,8.15
2023-10-25T00:52:58.857Z,7.90
2023-10-25T00:56:03.180Z,8.65
2023-10-25T00:59:07.562Z,8.88
2023-10-25T01:02:12.647Z,9.13
2023-10-25T01:05:16.555Z,9.35
2023-10-25T01:08:21.038Z,8.93
2023-10-25T01:11:23.752Z,8.10
2023-10-25T01:14:32.389Z,8.70
2023-10-25T01:17:35.169Z,8.75
2023-10-25T01:20:37.483Z,7.72
2023-10-25T01:23:40.018Z,8.73
2023-10-25T01:26:42.469Z,7.95
2023-10-25T01:29:45.074Z,6.68
2023-10-25T01:32:48.674Z,6.85
2023-10-25T01:35:53.786Z,7.15
2023-10-25T01:38:56.181Z,7.28
2023-10-25T01:41:59.293Z,8.23
2023-10-25T01:45:02.457Z,7.62
2023-10-25T01:48:05.621Z,7.57
2023-10-25T01:51:08.013Z,8.02
2023-10-25T01:54:10.738Z,7.28
2023-10-25T01:57:13.946Z,7.75
2023-10-25T02:00:16.988Z,8.10
2023-10-25T02:03:20.618Z,7.55
2023-10-25T02:06:24.021Z,8.00
2023-10-25T02:09:26.609Z,8.75
2023-10-25T02:12:29.012Z,7.90
2023-10-25T02:15:32.542Z,7.87
2023-10-25T02:18:34.784Z,7.07
2023-10-25T02:21:37.724Z,7.62
2023-10-25T02:24:40.142Z,7.78
2023-10-25T02:27:45.065Z,8.48
2023-10-25T02:30:47.397Z,8.05
2023-10-25T02:33:51.208Z,8.52
2023-10-25T02:36:53.658Z,8.32
2023-10-25T02:39:56.362Z,9.85
2023-10-25T02:42:58.692Z,9.32
2023-10-25T02:46:03.770Z,11.25
2023-10-25T02:49:06.239Z,9.40
2023-10-25T02:52:09.043Z,8.80
2023-10-25T02:55:12.443Z,8.88
2023-10-25T02:58:16.009Z,9.60
2023-10-25T03:01:27.890Z,8.95
2023-10-25T03:04:30.647Z,9.32
2023-10-25T03:07:33.073Z,9.27
2023-10-25T03:10:35.669Z,8.57
2023-10-25T03:13:38.507Z,9.07
2023-10-25T03:16:41.547Z,9.05
2023-10-25T03:19:44.240Z,8.73
2023-10-25T03:22:47.002Z,8.90
2023-10-25T03:25:49.282Z,7.25
2023-10-25T03:28:52.334Z,6.72
2023-10-25T03:31:59.312Z,6.07
2023-10-25T03:35:02.343Z,4.03
2023-10-25T03:38:04.609Z,1.70
2023-10-25T03:41:09.182Z,1.02
2023-10-25T03:44:12.171Z,0.22
2023-10-25T03:47:14.930Z,0.30
2023-10-25T03:50:17.400Z,0.25
2023-10-25T03:53:20.129Z,0.30
2023-10-25T03:56:22.402Z,0.40
2023-10-25T03:59:24.945Z,1.00
2023-10-25T04:02:29.279Z,1.00
2023-10-25T04:05:31.839Z,1.58
2023-10-25T04:08:34.502Z,1.90
2023-10-25T04:11:37.003Z,2.00
2023-10-25T04:14:45.726Z,1.75
2023-10-25T04:17:48.394Z,2.47
2023-10-25T04:20:50.683Z,2.90
2023-10-25T04:23:53.225Z,3.08
2023-10-25T04:26:55.439Z,2.80
2023-10-25T04:29:57.952Z,3.22
2023-10-25T04:33:00.408Z,3.08
2023-10-25T04:36:03.014Z,3.17
2023-10-25T04:39:05.842Z,3.78
2023-10-25T04:42:10.215Z,3.67
2023-10-25T04:45:13.576Z,4.53
2023-10-25T04:48:16.516Z,4.03
2023-10-25T04:51:19.222Z,4.53
2023-10-25T04:54:22.654Z,4.62
2023-10-25T04:57:24.991Z,5.07
2023-10-25T05:00:29.232Z,4.78
2023-10-25T05:03:31.674Z,4.55
2023-10-25T05:06:34.797Z,4.50
2023-10-25T05:09:37.481Z,4.50
2023-10-25T05:12:45.793Z,4.20
2023-10-25T05:15:48.421Z,4.82
2023-10-25T05:18:51.441Z,5.55
2023-10-25T05:21:55.890Z,5.03
2023-10-25T05:24:58.723Z,4.70
2023-10-25T05:28:02.589Z,4.85
2023-10-25T05:31:07.191Z,4.97
2023-10-25T05:34:10.632Z,4.95
2023-10-25T05:37:13.550Z,4.97
2023-10-25T05:40:16.751Z,5.97
2023-10-25T05:43:24.661Z,5.28
2023-10-25T05:46:27.005Z,5.32
2023-10-25T05:49:29.769Z,5.10
2023-10-25T05:52:32.288Z,5.05
2023-10-25T05:55:35.229Z,5.20
2023-10-25T05:58:37.686Z,4.65
2023-10-25T06:01:50.714Z,4.95
2023-10-25T06:04:56.489Z,4.65
2023-10-25T06:08:00.130Z,4.78
2023-10-25T06:11:03.080Z,4.50
2023-10-25T06:14:09.088Z,5.25
2023-10-25T06:17:11.676Z,5.20
2023-10-25T06:20:20.397Z,4.20
2023-10-25T06:23:23.014Z,4.78
2023-10-25T06:26:25.592Z,4.85
2023-10-25T06:29:28.306Z,4.95
2023-10-25T06:32:30.717Z,4.65
2023-10-25T06:35:40.456Z,4.28
2023-10-25T06:38:43.676Z,4.05
2023-10-25T06:41:46.572Z,5.00
2023-10-25T06:44:49.209Z,4.20
2023-10-25T06:47:52.604Z,5.12
2023-10-25T06:50:59.970Z,3.95
2023-10-25T06:54:04.623Z,4.43
2023-10-25T06:57:07.365Z,4.57
2023-10-25T07:00:10.682Z,4.03
2023-10-25T07:03:14.557Z,4.47
2023-10-25T07:06:19.300Z,3.92
2023-10-25T07:09:22.392Z,3.65
2023-10-25T07:12:24.945Z,4.25
2023-10-25T07:15:27.560Z,3.65
2023-10-25T07:18:30.189Z,3.08
2023-10-25T07:21:32.422Z,3.50
2023-10-25T07:24:34.871Z,3.53
2023-10-25T07:27:40.136Z,3.15
2023-10-25T07:30:43.018Z,4.00
2023-10-25T07:33:45.256Z,3.85
2023-10-25T07:36:47.834Z,3.85
2023-10-25T07:39:50.035Z,3.28
2023-10-25T07:42:52.739Z,3.12
2023-10-25T07:45:56.687Z,3.12
2023-10-25T07:48:59.835Z,3.92
2023-10-25T07:52:03.329Z,3.20
2023-10-25T07:55:37.198Z,3.12
2023-10-25T07:58:29.906Z,3.08
2023-10-25T08:01:32.723Z,3.00
2023-10-25T08:04:35.373Z,2.65
2023-10-25T08:07:37.869Z,3.37
2023-10-25T08:10:40.585Z,2.87
2023-10-25T08:13:44.304Z,2.70
2023-10-25T08:16:47.002Z,2.90
2023-10-25T08:19:49.448Z,2.58
2023-10-25T08:22:52.243Z,2.80
2023-10-25T08:25:54.751Z,3.17
2023-10-25T08:28:57.297Z,2.30
2023-10-25T08:31:59.521Z,3.00
2023-10-25T08:35:02.788Z,2.37
2023-10-25T08:38:06.671Z,3.10
2023-10-25T08:41:11.059Z,2.90
2023-10-25T08:44:13.700Z,2.50
2023-10-25T08:47:16.245Z,2.78
2023-10-25T08:50:21.431Z,2.30
2023-10-25T08:53:28.953Z,2.65
2023-10-25T08:56:31.272Z,2.55
2023-10-25T08:59:48.345Z,2.30
2023-10-25T09:02:57.805Z,2.33
2023-10-25T09:06:06.189Z,2.22
2023-10-25T09:09:10.264Z,2.47
2023-10-25T09:12:23.803Z,2.83
2023-10-25T09:15:30.777Z,2.35
2023-10-25T09:18:35.069Z,2.12
2023-10-25T09:21:38.152Z,2.40
2023-10-25T09:24:51.596Z,2.47
2023-10-25T09:27:53.907Z,1.90
2023-10-25T09:31:01.097Z,2.20
2023-10-25T09:34:09.399Z,1.83
2023-10-25T09:37:12.229Z,2.03
2023-10-25T09:40:15.075Z,1.75
2023-10-25T09:43:27.620Z,1.60
2023-10-25T09:46:32.595Z,1.83
2023-10-25T09:49:42.437Z,1.73
2023-10-25T09:52:50.583Z,1.55
2023-10-25T09:56:01.565Z,1.60
2023-10-25T09:59:07.516Z,1.50
2023-10-25T10:02:16.352Z,1.42
2023-10-25T10:05:31.132Z,1.73
2023-10-25T10:09:06.755Z,1.17
2023-10-25T10:12:12.995Z,1.40
2023-10-25T10:15:17.622Z,1.30
2023-10-25T10:18:20.752Z,1.30
2023-10-25T10:21:23.115Z,1.10
2023-10-25T10:24:42.920Z,1.40
2023-10-25T10:27:45.251Z,1.10
2023-10-25T10:30:48.871Z,1.30
2023-10-25T10:33:51.213Z,1.10
2023-10-25T10:37:07.770Z,1.33
2023-10-25T10:40:09.868Z,1.10
2023-10-25T10:43:12.392Z,1.50
2023-10-25T10:46:15.231Z,1.48
2023-10-25T10:49:21.016Z,1.20
2023-10-25T10:52:23.414Z,1.20
2023-10-25T10:55:26.550Z,1.30
2023-10-25T10:58:30.917Z,1.17
2023-10-25T11:01:33.751Z,1.55
2023-10-25T11:04:36.060Z,1.25
2023-10-25T11:07:38.652Z,1.12
2023-10-25T11:10:41.055Z,1.37
2023-10-25T11:13:44.215Z,0.95
2023-10-25T11:16:46.877Z,1.00
2023-10-25T11:19:49.587Z,1.27
2023-10-25T11:22:52.199Z,1.02
2023-10-25T11:25:56.537Z,1.20
2023-10-25T11:28:59.338Z,1.00
2023-10-25T11:32:07.565Z,1.23
2023-10-25T11:35:21.983Z,1.02
2023-10-25T11:38:26.354Z,1.08
2023-10-25T11:41:28.920Z,0.82
2023-10-25T11:44:31.730Z,0.80
2023-10-25T11:47:35.096Z,0.90
2023-10-25T11:50:38.280Z,0.90
2023-10-25T11:53:40.833Z,1.20
2023-10-25T11:56:43.519Z,1.02
2023-10-25T11:59:46.033Z,1.05
2023-10-25T12:02:48.676Z,0.90
2023-10-25T12:05:51.268Z,1.10
2023-10-25T12:08:53.623Z,1.37
2023-10-25T12:11:56.350Z,1.60
2023-10-25T12:14:59.015Z,1.20
2023-10-25T12:18:03.808Z,1.30
2023-10-25T12:21:07.397Z,0.82
2023-10-25T12:24:10.508Z,0.90
2023-10-25T12:27:12.984Z,0.90
2023-10-25T12:30:15.495Z,0.82
2023-10-25T12:33:18.087Z,0.90
2023-10-25T12:36:20.781Z,1.10
2023-10-25T12:39:23.061Z,0.75
2023-10-25T12:42:25.701Z,1.08
2023-10-25T12:45:29.522Z,0.82
2023-10-25T12:48:33.994Z,1.10
2023-10-25T12:51:37.070Z,0.95
2023-10-25T12:54:39.682Z,0.82
2023-10-25T12:57:41.948Z,0.95
2023-10-25T13:00:46.742Z,1.23
2023-10-25T13:03:49.155Z,1.17
2023-10-25T13:06:54.141Z,0.90
2023-10-25T13:10:02.442Z,0.88
2023-10-25T13:13:07.019Z,0.77
2023-10-25T13:16:09.810Z,1.12
2023-10-25T13:19:13.034Z,0.93
2023-10-25T13:22:15.666Z,1.02
2023-10-25T13:25:18.697Z,0.90
2023-10-25T13:28:21.272Z,0.95
2023-10-25T13:31:23.993Z,0.75
2023-10-25T13:34:26.231Z,1.10
2023-10-25T13:37:28.899Z,0.70
2023-10-25T13:40:31.800Z,0.62
2023-10-25T13:43:34.931Z,1.02
2023-10-25T13:46:37.232Z,0.90
2023-10-25T13:49:40.612Z,1.00
2023-10-25T13:52:42.963Z,0.80
2023-10-25T13:55:46.253Z,0.68
2023-10-25T13:58:48.603Z,0.73
2023-10-25T14:01:51.202Z,0.88
2023-10-25T14:04:53.930Z,0.70
2023-10-25T14:07:56.129Z,0.70
2023-10-25T14:10:58.886Z,0.80
2023-10-25T14:14:01.180Z,0.70
2023-10-25T14:17:03.915Z,0.70
2023-10-25T14:20:07.093Z,0.60
2023-10-25T14:23:10.052Z,0.45
2023-10-25T14:26:12.321Z,0.68
2023-10-25T14:29:15.045Z,0.52
2023-10-25T14:32:17.866Z,0.57
2023-10-25T14:35:20.674Z,0.70
2023-10-25T14:38:22.935Z,0.60
2023-10-25T14:41:26.277Z,0.60
2023-10-25T14:44:28.626Z,0.40
2023-10-25T14:47:31.600Z,0.82
2023-10-25T14:50:38.874Z,0.60
2023-10-25T14:53:41.639Z,1.20
2023-10-25T14:56:44.435Z,1.00
2023-10-25T14:59:49.076Z,0.60
2023-10-25T15:02:54.252Z,0.70
2023-10-25T15:05:57.517Z,0.70
2023-10-25T15:09:00.205Z,0.80
2023-10-25T15:12:03.361Z,0.80
2023-10-25T15:15:06.532Z,0.60
2023-10-25T15:18:09.168Z,0.90
2023-10-25T15:21:16.346Z,1.00
2023-10-25T15:24:18.977Z,0.60
2023-10-25T15:27:21.266Z,1.00
2023-10-25T15:30:23.945Z,0.90
2023-10-25T15:33:26.260Z,1.40
2023-10-25T15:36:28.860Z,1.00
2023-10-25T15:39:32.457Z,1.27
2023-10-25T15:42:37.184Z,1.23
2023-10-25T15:45:42.498Z,1.15
2023-10-25T15:48:47.855Z,1.00
2023-10-25T15:51:50.680Z,1.35
2023-10-25T15:54:53.215Z,1.20
2023-10-25T15:57:55.527Z,2.58
2023-10-25T16:04:05.829Z,4.25
2023-10-25T16:07:08.360Z,5.18
2023-10-25T16:10:11.142Z,7.32
2023-10-25T16:13:13.377Z,7.50
2023-10-25T16:16:16.339Z,7.20
2023-10-25T16:19:19.176Z,6.80
2023-10-25T16:22:21.721Z,6.78
2023-10-25T16:25:23.992Z,6.07
2023-10-25T16:28:26.609Z,9.45
2023-10-25T16:31:30.319Z,9.38
2023-10-25T16:34:32.870Z,7.12
2023-10-25T16:37:35.297Z,7.03
2023-10-25T16:40:39.094Z,7.15
2023-10-25T16:43:42.564Z,7.30
2023-10-25T16:46:45.257Z,7.70
2023-10-25T16:49:47.496Z,6.87
2023-10-25T16:52:53.535Z,7.65
2023-10-25T16:55:55.757Z,7.03
2023-10-25T16:58:58.304Z,6.43
2023-10-25T17:02:01.484Z,6.78
2023-10-25T17:05:04.906Z,5.62
2023-10-25T17:08:07.194Z,4.50
2023-10-25T17:11:10.338Z,4.12
2023-10-25T17:14:12.588Z,3.80
2023-10-25T17:17:15.175Z,4.40
2023-10-25T17:20:17.549Z,4.03
2023-10-25T17:23:23.372Z,3.50
2023-10-25T17:26:25.807Z,3.83
2023-10-25T17:29:29.083Z,3.55
2023-10-25T17:32:31.356Z,4.07
2023-10-25T17:35:34.030Z,3.65
2023-10-25T17:38:37.428Z,3.22
2023-10-25T17:41:40.625Z,3.45
2023-10-25T17:44:44.036Z,3.65
2023-10-25T17:47:54.151Z,3.60
2023-10-25T17:50:56.956Z,3.60
2023-10-25T17:53:59.689Z,3.20
2023-10-25T17:57:02.098Z,3.55
2023-10-25T18:00:05.322Z,3.75
2023-10-25T18:03:08.606Z,4.07
2023-10-25T18:06:11.039Z,3.40
2023-10-25T18:09:13.598Z,3.62
2023-10-25T18:12:15.976Z,3.92
2023-10-25T18:15:18.630Z,3.67
2023-10-25T18:18:21.301Z,3.50
2023-10-25T18:21:24.043Z,4.75
2023-10-25T18:24:26.721Z,6.53
2023-10-25T18:27:32.907Z,8.98
2023-10-25T18:31:55.927Z,8.25
2023-10-25T18:33:57.816Z,6.85
2023-10-25T18:37:00.209Z,6.45
2023-10-25T18:40:02.858Z,5.28
2023-10-25T18:43:05.278Z,5.32
2023-10-25T18:46:10.110Z,5.78
2023-10-25T18:49:14.624Z,6.62
2023-10-25T18:52:17.508Z,6.03
2023-10-25T18:55:19.779Z,6.00
2023-10-25T18:58:22.217Z,6.22
2023-10-25T19:01:24.742Z,5.68
2023-10-25T19:04:27.304Z,6.87
2023-10-25T19:07:29.663Z,6.82
2023-10-25T19:10:32.978Z,8.18
2023-10-25T19:13:36.353Z,7.20
2023-10-25T19:16:39.265Z,7.40
2023-10-25T19:19:48.639Z,7.85
2023-10-25T19:22:55.528Z,7.75
2023-10-25T19:25:57.759Z,7.00
2023-10-25T19:29:02.194Z,7.45
2023-10-25T19:32:04.933Z,7.25
2023-10-25T19:35:07.817Z,7.25
2023-10-25T19:38:10.633Z,6.97
2023-10-25T19:41:13.236Z,6.15
2023-10-25T19:44:15.921Z,6.25
2023-10-25T19:47:20.309Z,6.78
2023-10-25T19:50:22.646Z,6.32
2023-10-25T19:53:25.304Z,6.15
2023-10-25T19:56:30.361Z,6.03
2023-10-25T19:59:32.990Z,6.65
2023-10-25T20:02:35.318Z,5.82
2023-10-25T20:05:38.032Z,5.45
2023-10-25T20:08:40.308Z,5.95
2023-10-25T20:11:43.126Z,6.87
2023-10-25T20:14:45.618Z,6.53
2023-10-25T20:17:48.444Z,5.87
2023-10-25T20:20:51.450Z,5.80
2023-10-25T20:24:01.148Z,6.07
2023-10-25T20:27:04.188Z,5.25
2023-10-25T20:30:07.721Z,5.68
2023-10-25T20:33:10.396Z,5.40
2023-10-25T20:36:13.156Z,5.93
2023-10-25T20:39:15.441Z,5.72
2023-10-25T20:42:18.248Z,5.15
2023-10-25T20:45:20.547Z,5.32
2023-10-25T20:48:23.373Z,5.22
2023-10-25T20:51:25.856Z,5.37
2023-10-25T20:54:28.457Z,5.60
2023-10-25T20:57:30.740Z,5.28
2023-10-25T21:00:33.207Z,5.05
2023-10-25T21:03:35.609Z,5.45
2023-10-25T21:06:38.479Z,5.03
2023-10-25T21:09:40.822Z,5.75
2023-10-25T21:12:44.092Z,4.87
2023-10-25T21:15:49.999Z,5.45
2023-10-25T21:18:53.292Z,4.60
2023-10-25T21:21:58.947Z,5.22
2023-10-25T21:25:01.511Z,5.87
2023-10-25T21:28:04.281Z,5.97
2023-10-25T21:31:09.348Z,6.03
2023-10-25T21:34:11.788Z,6.30
2023-10-25T21:37:14.443Z,5.62
2023-10-25T21:40:16.794Z,5.93
2023-10-25T21:43:19.338Z,6.15
2023-10-25T21:46:21.674Z,6.53
2023-10-25T21:49:24.285Z,5.93
2023-10-25T21:52:26.659Z,5.20
2023-10-25T21:55:31.911Z,4.97
2023-10-25T21:59:45.256Z,5.25
2023-10-25T22:01:56.884Z,5.20
2023-10-25T22:04:59.422Z,5.00
2023-10-25T22:08:01.704Z,5.60
2023-10-25T22:11:04.621Z,4.60
2023-10-25T22:14:07.486Z,4.62
2023-10-25T22:17:10.004Z,4.78
2023-10-25T22:20:13.140Z,5.03
2023-10-25T22:23:15.756Z,4.65
2023-10-25T22:26:18.071Z,4.40
2023-10-25T22:29:20.659Z,3.97
2023-10-25T22:32:22.977Z,4.53
2023-10-25T22:35:25.534Z,6.05
2023-10-25T22:38:28.516Z,4.18
2023-10-25T22:41:31.156Z,4.72
2023-10-25T22:44:33.600Z,3.97
2023-10-25T22:47:36.215Z,3.75
2023-10-25T22:50:38.585Z,3.80
2023-10-25T22:53:41.096Z,4.12
2023-10-25T22:56:43.556Z,3.60
2023-10-25T22:59:46.275Z,4.07
2023-10-25T23:02:48.607Z,3.97
2023-10-25T23:05:51.251Z,3.87
2023-10-25T23:08:53.520Z,3.72
2023-10-25T23:11:57.826Z,4.12
2023-10-25T23:15:00.309Z,4.60
2023-10-25T23:18:04.087Z,3.90
2023-10-25T23:21:06.472Z,3.58
2023-10-25T23:24:09.360Z,4.15
2023-10-25T23:27:11.726Z,3.50
2023-10-25T23:30:14.837Z,3.97
2023-10-25T23:33:17.096Z,4.20
2023-10-25T23:36:19.710Z,3.78
2023-10-25T23:39:22.129Z,3.65
2023-10-25T23:42:24.709Z,3.67
2023-10-25T23:45:27.007Z,3.28
2023-10-25T23:48:29.828Z,4.10
2023-10-25T23:51:32.200Z,3.60
2023-10-25T23:54:51.217Z,4.03
2023-10-25T23:57:57.291Z,4.12
